createdAt,value
2022-08-22T00:01:53.874Z,99.90
2022-08-22T00:11:00.608Z,99.90
2022-08-22T00:16:58.842Z,99.90
2022-08-22T00:20:08.946Z,99.90
2022-08-22T00:23:41.468Z,99.90
2022-08-22T00:26:53.346Z,99.90
2022-08-22T00:30:14.030Z,99.90
2022-08-22T00:35:48.471Z,99.90
2022-08-22T00:38:30.267Z,99.90
2022-08-22T00:41:03.941Z,99.90
2022-08-22T00:43:51.786Z,99.90
2022-08-22T00:46:54.460Z,99.90
2022-08-22T00:49:36.792Z,99.90
2022-08-22T00:52:36.405Z,99.90
2022-08-22T00:55:20.900Z,99.90
2022-08-22T00:57:58.932Z,99.90
2022-08-22T01:00:39.084Z,99.90
2022-08-22T01:04:02.502Z,99.90
2022-08-22T01:10:21.939Z,99.90
2022-08-22T01:13:29.426Z,99.90
2022-08-22T01:16:06.849Z,99.90
2022-08-22T01:23:34.272Z,99.90
2022-08-22T01:25:52.727Z,99.90
2022-08-22T01:29:05.545Z,99.90
2022-08-22T01:31:56.705Z,99.90
2022-08-22T01:34:44.704Z,99.90
2022-08-22T01:37:56.782Z,99.90
2022-08-22T01:43:58.579Z,99.90
2022-08-22T01:49:49.006Z,99.90
2022-08-22T01:52:29.706Z,99.90
2022-08-22T01:55:48.540Z,99.90
2022-08-22T01:59:11.375Z,99.90
2022-08-22T02:01:54.953Z,99.90
2022-08-22T02:04:54.960Z,99.90
2022-08-22T02:07:56.274Z,99.90
2022-08-22T02:11:01.192Z,99.90
2022-08-22T02:13:52.061Z,99.90
2022-08-22T02:16:39.427Z,99.90
2022-08-22T02:19:13.226Z,99.90
2022-08-22T02:21:53.460Z,99.90
2022-08-22T02:24:50.454Z,99.90
2022-08-22T02:27:27.148Z,99.90
2022-08-22T02:30:31.315Z,99.90
2022-08-22T02:33:18.242Z,99.90
2022-08-22T02:36:10.735Z,99.90
2022-08-22T02:38:54.108Z,99.90
2022-08-22T02:41:46.585Z,99.90
2022-08-22T02:47:40.092Z,99.90
2022-08-22T02:50:24.851Z,99.90
2022-08-22T02:53:16.043Z,99.90
2022-08-22T02:55:56.396Z,99.90
2022-08-22T02:58:45.052Z,99.90
2022-08-22T03:01:40.997Z,99.90
2022-08-22T03:04:41.474Z,99.90
2022-08-22T03:07:22.244Z,99.90
2022-08-22T03:10:17.511Z,99.90
2022-08-22T03:12:59.899Z,99.90
2022-08-22T03:15:52.740Z,99.90
2022-08-22T03:18:30.095Z,99.90
2022-08-22T03:21:21.011Z,99.90
2022-08-22T03:24:03.969Z,99.90
2022-08-22T03:26:40.634Z,99.90
2022-08-22T03:29:17.025Z,99.90
2022-08-22T03:32:12.450Z,99.90
2022-08-22T03:34:58.385Z,99.90
2022-08-22T03:37:41.001Z,99.90
2022-08-22T03:40:34.450Z,99.90
2022-08-22T03:43:28.137Z,99.90
2022-08-22T03:46:22.514Z,99.90
2022-08-22T03:49:23.609Z,99.90
2022-08-22T03:52:03.561Z,99.90
2022-08-22T03:55:08.456Z,99.90
2022-08-22T03:58:13.654Z,99.90
2022-08-22T04:01:27.498Z,99.90
2022-08-22T04:04:36.922Z,99.90
2022-08-22T04:07:31.566Z,99.90
2022-08-22T04:10:17.276Z,99.90
2022-08-22T04:13:07.450Z,99.90
2022-08-22T04:15:56.049Z,99.90
2022-08-22T04:18:33.387Z,99.90
2022-08-22T04:21:45.035Z,99.90
2022-08-22T04:24:52.444Z,99.90
2022-08-22T04:27:38.569Z,99.90
2022-08-22T04:30:20.217Z,99.90
2022-08-22T04:33:15.730Z,99.90
2022-08-22T04:35:55.603Z,99.90
2022-08-22T04:38:34.972Z,99.90
2022-08-22T04:41:23.062Z,99.90
2022-08-22T04:44:14.359Z,99.90
2022-08-22T04:47:07.521Z,99.90
2022-08-22T04:50:22.839Z,99.90
2022-08-22T04:53:09.756Z,99.90
2022-08-22T04:55:55.383Z,99.90
2022-08-22T04:58:50.393Z,99.90
2022-08-22T05:01:32.453Z,99.90
2022-08-22T05:04:17.757Z,99.90
2022-08-22T05:07:00.722Z,99.90
2022-08-22T05:09:42.195Z,99.90
2022-08-22T05:12:25.744Z,99.90
2022-08-22T05:15:03.038Z,99.90
2022-08-22T05:17:37.063Z,99.90
2022-08-22T05:20:11.197Z,99.90
2022-08-22T05:22:47.098Z,99.90
2022-08-22T05:25:23.381Z,99.90
2022-08-22T05:28:05.416Z,99.90
2022-08-22T05:30:48.551Z,99.90
2022-08-22T05:33:44.327Z,99.90
2022-08-22T05:39:13.095Z,99.90
2022-08-22T05:41:53.956Z,99.90
2022-08-22T05:44:35.296Z,99.90
2022-08-22T05:47:10.495Z,99.90
2022-08-22T05:49:42.278Z,99.90
2022-08-22T05:52:22.654Z,99.90
2022-08-22T05:55:01.627Z,99.90
2022-08-22T05:57:32.079Z,99.90
2022-08-22T06:00:08.244Z,99.90
2022-08-22T06:02:59.570Z,99.90
2022-08-22T06:05:29.727Z,99.90
2022-08-22T06:08:08.689Z,99.90
2022-08-22T06:10:51.717Z,99.90
2022-08-22T06:13:49.699Z,99.90
2022-08-22T06:16:31.103Z,99.90
2022-08-22T06:19:19.169Z,99.90
2022-08-22T06:21:52.496Z,99.90
2022-08-22T06:24:32.755Z,99.90
2022-08-22T06:27:20.889Z,99.90
2022-08-22T06:33:12.384Z,99.90
2022-08-22T06:36:13.244Z,99.90
2022-08-22T06:39:22.168Z,99.90
2022-08-22T06:41:56.036Z,99.90
2022-08-22T06:44:38.199Z,99.90
2022-08-22T06:47:15.418Z,99.90
2022-08-22T06:49:46.559Z,99.90
2022-08-22T06:52:28.129Z,99.90
2022-08-22T06:55:30.117Z,99.90
2022-08-22T07:02:22.863Z,99.90
2022-08-22T07:08:08.772Z,99.90
2022-08-22T07:10:50.584Z,99.90
2022-08-22T07:13:21.012Z,99.90
2022-08-22T07:15:56.358Z,99.90
2022-08-22T07:18:38.023Z,99.90
2022-08-22T07:24:49.100Z,99.90
2022-08-22T07:30:50.017Z,99.90
2022-08-22T07:33:36.675Z,99.90
2022-08-22T07:36:11.857Z,99.90
2022-08-22T07:38:53.317Z,99.90
2022-08-22T07:41:26.089Z,99.90
2022-08-22T07:44:19.875Z,99.90
2022-08-22T07:47:01.970Z,99.90
2022-08-22T07:49:49.721Z,99.90
2022-08-22T07:52:28.472Z,99.00
2022-08-22T07:54:58.524Z,96.80
2022-08-22T07:57:46.174Z,94.40
2022-08-22T08:00:20.586Z,93.30
2022-08-22T08:03:00.039Z,92.80
2022-08-22T08:05:30.951Z,91.70
2022-08-22T08:10:56.002Z,90.30
2022-08-22T08:13:30.183Z,87.20
2022-08-22T08:16:00.791Z,84.70
2022-08-22T08:18:34.968Z,80.20
2022-08-22T08:21:14.981Z,79.10
2022-08-22T08:23:51.242Z,76.10
2022-08-22T08:26:26.144Z,75.90
2022-08-22T08:28:58.801Z,70.70
2022-08-22T08:31:46.389Z,71.50
2022-08-22T08:34:22.012Z,70.80
2022-08-22T08:39:53.023Z,63.70
2022-08-22T08:43:00.455Z,65.50
2022-08-22T08:45:38.097Z,63.40
2022-08-22T08:48:15.771Z,63.70
2022-08-22T08:50:56.496Z,58.60
2022-08-22T08:53:54.484Z,58.80
2022-08-22T08:56:27.182Z,57.80
2022-08-22T08:59:13.558Z,55.70
2022-08-22T09:01:56.721Z,55.30
2022-08-22T09:04:54.121Z,54.60
2022-08-22T09:07:37.789Z,53.40
2022-08-22T09:10:18.919Z,52.60
2022-08-22T09:13:11.526Z,53.80
2022-08-22T09:15:58.486Z,54.40
2022-08-22T09:18:56.914Z,52.90
2022-08-22T09:21:51.935Z,51.20
2022-08-22T09:24:49.317Z,54.00
2022-08-22T09:27:25.150Z,56.10
2022-08-22T09:30:06.866Z,54.00
2022-08-22T09:32:43.140Z,55.30
2022-08-22T09:35:18.649Z,53.80
2022-08-22T09:38:11.265Z,54.40
2022-08-22T09:40:44.678Z,54.40
2022-08-22T09:43:19.859Z,52.80
2022-08-22T09:45:55.268Z,52.70
2022-08-22T09:48:43.908Z,52.80
2022-08-22T09:51:36.874Z,51.60
2022-08-22T09:54:31.485Z,51.60
2022-08-22T09:57:13.879Z,52.90
2022-08-22T10:00:02.802Z,51.20
2022-08-22T10:02:37.415Z,50.30
2022-08-22T10:05:41.207Z,52.20
2022-08-22T10:08:47.624Z,51.50
2022-08-22T10:11:45.429Z,50.50
2022-08-22T10:14:22.269Z,51.40
2022-08-22T10:17:22.245Z,50.70
2022-08-22T10:20:19.299Z,51.60
2022-08-22T10:23:09.954Z,50.70
2022-08-22T10:25:45.345Z,51.10
2022-08-22T10:28:35.246Z,51.00
2022-08-22T10:31:26.567Z,50.80
2022-08-22T10:34:17.790Z,49.70
2022-08-22T10:37:10.249Z,50.70
2022-08-22T10:40:02.592Z,50.90
2022-08-22T10:42:53.553Z,51.40
2022-08-22T10:45:35.841Z,50.70
2022-08-22T10:48:32.678Z,51.40
2022-08-22T10:51:09.900Z,49.30
2022-08-22T10:53:48.645Z,51.60
2022-08-22T10:56:36.665Z,49.60
2022-08-22T10:59:12.992Z,50.20
2022-08-22T11:01:46.214Z,50.30
2022-08-22T11:04:35.087Z,49.00
2022-08-22T11:07:18.223Z,50.20
2022-08-22T11:10:11.441Z,50.60
2022-08-22T11:12:46.948Z,50.30
2022-08-22T11:15:34.378Z,50.90
2022-08-22T11:18:13.313Z,49.10
2022-08-22T11:20:50.441Z,49.90
2022-08-22T11:23:37.675Z,51.00
2022-08-22T11:26:33.737Z,50.40
2022-08-22T11:29:35.917Z,50.10
2022-08-22T11:32:35.200Z,52.10
2022-08-22T11:35:26.231Z,52.40
2022-08-22T11:38:03.063Z,51.60
2022-08-22T11:40:41.705Z,51.10
2022-08-22T11:43:23.919Z,52.60
2022-08-22T11:45:58.973Z,51.70
2022-08-22T11:48:41.165Z,51.80
2022-08-22T11:51:18.314Z,49.70
2022-08-22T11:54:03.291Z,50.20
2022-08-22T11:56:35.616Z,51.90
2022-08-22T11:59:16.394Z,49.80
2022-08-22T12:01:50.275Z,50.00
2022-08-22T12:04:31.593Z,51.00
2022-08-22T12:07:08.619Z,51.00
2022-08-22T12:09:45.600Z,50.20
2022-08-22T12:12:34.215Z,49.50
2022-08-22T12:15:11.084Z,49.80
2022-08-22T12:17:59.953Z,50.50
2022-08-22T12:20:49.568Z,49.90
2022-08-22T12:23:48.681Z,49.60
2022-08-22T12:26:26.990Z,50.40
2022-08-22T12:29:03.061Z,52.10
2022-08-22T12:31:42.680Z,52.30
2022-08-22T12:34:27.519Z,52.60
2022-08-22T12:37:07.333Z,52.60
2022-08-22T12:40:02.731Z,52.20
2022-08-22T12:42:51.511Z,52.20
2022-08-22T12:45:46.669Z,52.10
2022-08-22T12:48:46.716Z,50.30
2022-08-22T12:51:31.860Z,49.60
2022-08-22T12:54:28.698Z,51.30
2022-08-22T12:57:24.070Z,50.90
2022-08-22T13:00:06.116Z,50.10
2022-08-22T13:02:54.126Z,50.00
2022-08-22T13:05:41.060Z,50.30
2022-08-22T13:08:21.309Z,51.00
2022-08-22T13:11:22.788Z,51.20
2022-08-22T13:14:18.251Z,51.80
2022-08-22T13:20:03.225Z,51.10
2022-08-22T13:22:49.688Z,49.80
2022-08-22T13:25:44.098Z,49.90
2022-08-22T13:28:27.288Z,51.20
2022-08-22T13:31:10.900Z,51.10
2022-08-22T13:33:57.315Z,48.70
2022-08-22T13:36:58.625Z,47.30
2022-08-22T13:39:55.951Z,49.20
2022-08-22T13:42:40.158Z,49.30
2022-08-22T13:45:34.082Z,49.00
2022-08-22T13:48:51.740Z,50.80
2022-08-22T13:51:27.841Z,50.90
2022-08-22T13:54:25.084Z,47.60
2022-08-22T13:57:11.057Z,48.30
2022-08-22T13:59:57.755Z,47.40
2022-08-22T14:03:00.211Z,46.40
2022-08-22T14:05:34.217Z,46.10
2022-08-22T14:08:45.738Z,46.70
2022-08-22T14:11:27.706Z,46.80
2022-08-22T14:13:57.921Z,45.80
2022-08-22T14:16:42.871Z,45.30
2022-08-22T14:19:30.355Z,46.30
2022-08-22T14:22:31.815Z,47.00
2022-08-22T14:25:37.323Z,48.00
2022-08-22T14:28:09.467Z,45.70
2022-08-22T14:33:40.861Z,47.10
2022-08-22T14:36:19.167Z,47.10
2022-08-22T14:38:57.598Z,47.80
2022-08-22T14:41:52.555Z,48.30
2022-08-22T14:44:22.474Z,49.00
2022-08-22T14:46:53.149Z,50.20
2022-08-22T14:49:28.706Z,50.30
2022-08-22T14:52:20.028Z,52.00
2022-08-22T14:54:51.148Z,52.20
2022-08-22T14:57:22.099Z,51.50
2022-08-22T14:59:57.308Z,54.10
2022-08-22T15:02:41.337Z,53.20
2022-08-22T15:05:24.058Z,55.00
2022-08-22T15:08:02.886Z,55.40
2022-08-22T15:10:44.067Z,56.60
2022-08-22T15:13:29.520Z,56.50
2022-08-22T15:16:08.042Z,56.40
2022-08-22T15:18:51.458Z,56.90
2022-08-22T15:21:24.448Z,57.20
2022-08-22T15:24:00.774Z,57.70
2022-08-22T15:26:34.504Z,59.00
2022-08-22T15:29:17.793Z,57.90
2022-08-22T15:31:55.277Z,57.80
2022-08-22T15:34:27.677Z,57.60
2022-08-22T15:37:07.808Z,58.40
2022-08-22T15:40:00.525Z,58.70
2022-08-22T15:42:35.436Z,59.70
2022-08-22T15:45:07.596Z,59.40
2022-08-22T15:47:49.224Z,58.50
2022-08-22T15:50:31.654Z,59.30
2022-08-22T15:53:16.712Z,59.20
2022-08-22T15:56:07.991Z,59.00
2022-08-22T15:58:48.145Z,59.60
2022-08-22T16:01:24.102Z,59.90
2022-08-22T16:04:07.378Z,59.60
2022-08-22T16:06:56.772Z,60.40
2022-08-22T16:09:42.710Z,61.50
2022-08-22T16:12:37.650Z,59.90
2022-08-22T16:15:37.046Z,60.80
2022-08-22T16:18:23.770Z,60.30
2022-08-22T16:21:09.318Z,60.80
2022-08-22T16:23:58.644Z,61.30
2022-08-22T16:26:40.349Z,61.20
2022-08-22T16:29:31.029Z,61.10
2022-08-22T16:32:07.003Z,61.80
2022-08-22T16:34:42.813Z,61.40
2022-08-22T16:37:42.973Z,61.80
2022-08-22T16:40:19.264Z,62.00
2022-08-22T16:42:51.207Z,62.30
2022-08-22T16:45:38.353Z,62.60
2022-08-22T16:48:16.894Z,63.50
2022-08-22T16:50:47.625Z,63.50
2022-08-22T16:53:33.940Z,63.80
2022-08-22T16:56:14.161Z,62.60
2022-08-22T16:59:14.227Z,63.00
2022-08-22T17:02:03.544Z,63.30
2022-08-22T17:04:35.108Z,64.00
2022-08-22T17:07:12.559Z,63.10
2022-08-22T17:10:00.768Z,63.70
2022-08-22T17:12:38.801Z,64.10
2022-08-22T17:15:17.010Z,64.90
2022-08-22T17:17:52.085Z,65.20
2022-08-22T17:20:25.761Z,65.60
2022-08-22T17:23:07.725Z,66.60
2022-08-22T17:26:05.784Z,66.20
2022-08-22T17:31:43.793Z,66.70
2022-08-22T17:34:25.360Z,66.10
2022-08-22T17:40:03.134Z,66.60
2022-08-22T17:42:52.503Z,66.70
2022-08-22T17:45:29.846Z,66.30
2022-08-22T17:48:08.859Z,66.40
2022-08-22T17:50:53.082Z,66.60
2022-08-22T17:53:36.212Z,66.80
2022-08-22T17:56:25.131Z,66.60
2022-08-22T17:59:07.622Z,66.10
2022-08-22T18:01:50.062Z,65.30
2022-08-22T18:04:33.405Z,66.50
2022-08-22T18:07:13.978Z,67.20
2022-08-22T18:09:51.835Z,66.90
2022-08-22T18:12:24.025Z,67.00
2022-08-22T18:14:59.572Z,66.70
2022-08-22T18:17:37.034Z,66.70
2022-08-22T18:20:14.859Z,67.20
2022-08-22T18:22:55.879Z,67.20
2022-08-22T18:25:33.474Z,68.80
2022-08-22T18:28:05.135Z,68.50
2022-08-22T18:30:37.433Z,68.00
2022-08-22T18:33:24.477Z,71.50
2022-08-22T18:36:18.786Z,72.50
2022-08-22T18:38:58.304Z,74.40
2022-08-22T18:41:31.383Z,72.50
2022-08-22T18:44:17.854Z,72.90
2022-08-22T18:46:47.262Z,77.20
2022-08-22T18:49:42.975Z,79.00
2022-08-22T18:55:39.800Z,80.50
2022-08-22T18:58:58.888Z,80.00
2022-08-22T19:01:46.802Z,75.90
2022-08-22T19:04:38.044Z,77.00
2022-08-22T19:07:20.587Z,79.00
2022-08-22T19:09:58.203Z,80.50
2022-08-22T19:12:41.833Z,80.80
2022-08-22T19:15:25.307Z,81.00
2022-08-22T19:18:24.152Z,83.20
2022-08-22T19:21:28.235Z,83.10
2022-08-22T19:23:59.737Z,83.50
2022-08-22T19:26:35.988Z,83.50
2022-08-22T19:29:16.132Z,85.70
2022-08-22T19:32:00.616Z,85.10
2022-08-22T19:34:49.048Z,85.00
2022-08-22T19:37:54.043Z,87.40
2022-08-22T19:40:48.683Z,84.60
2022-08-22T19:43:50.756Z,85.70
2022-08-22T19:46:49.385Z,86.60
2022-08-22T19:49:44.626Z,86.70
2022-08-22T19:52:32.419Z,87.90
2022-08-22T19:55:32.091Z,88.00
2022-08-22T19:58:17.922Z,90.20
2022-08-22T20:01:05.223Z,89.60
2022-08-22T20:03:51.996Z,89.70
2022-08-22T20:06:47.779Z,90.30
2022-08-22T20:09:35.535Z,90.50
2022-08-22T20:12:39.811Z,91.20
2022-08-22T20:15:22.862Z,91.70
2022-08-22T20:20:55.440Z,92.10
2022-08-22T20:23:32.408Z,92.20
2022-08-22T20:26:02.939Z,92.60
2022-08-22T20:28:40.373Z,92.50
2022-08-22T20:31:17.028Z,92.90
2022-08-22T20:33:48.112Z,93.00
2022-08-22T20:36:28.402Z,92.90
2022-08-22T20:39:24.264Z,92.90
2022-08-22T20:41:55.445Z,93.10
2022-08-22T20:44:30.294Z,92.90
2022-08-22T20:47:14.135Z,92.40
2022-08-22T20:49:48.575Z,92.50
2022-08-22T20:52:29.662Z,92.60
2022-08-22T20:55:34.827Z,92.80
2022-08-22T20:58:04.420Z,93.00
2022-08-22T21:00:35.947Z,93.70
2022-08-22T21:03:11.445Z,94.40
2022-08-22T21:05:49.306Z,94.30
2022-08-22T21:08:23.647Z,94.40
2022-08-22T21:11:20.406Z,94.50
2022-08-22T21:13:49.553Z,95.60
2022-08-22T21:16:20.983Z,96.20
2022-08-22T21:18:54.797Z,96.60
2022-08-22T21:21:24.969Z,96.90
2022-08-22T21:24:01.141Z,97.40
2022-08-22T21:26:32.452Z,98.00
2022-08-22T21:29:05.880Z,98.60
2022-08-22T21:31:52.191Z,98.90
2022-08-22T21:34:26.159Z,99.30
2022-08-22T21:36:59.896Z,99.90
2022-08-22T21:39:34.518Z,99.90
2022-08-22T21:42:18.058Z,99.90
2022-08-22T21:44:59.266Z,99.90
2022-08-22T21:47:40.070Z,99.90
2022-08-22T21:50:18.974Z,99.90
2022-08-22T21:53:02.115Z,99.90
2022-08-22T21:55:51.919Z,99.90
2022-08-22T21:58:36.046Z,99.90
2022-08-22T22:01:20.458Z,99.90
2022-08-22T22:03:53.611Z,99.90
2022-08-22T22:06:43.202Z,99.90
2022-08-22T22:09:34.283Z,99.90
2022-08-22T22:12:12.450Z,99.90
2022-08-22T22:14:47.553Z,99.90
2022-08-22T22:17:18.484Z,99.90
2022-08-22T22:19:46.875Z,99.90
2022-08-22T22:22:26.620Z,99.90
2022-08-22T22:24:55.370Z,99.90
2022-08-22T22:27:47.848Z,99.90
2022-08-22T22:30:50.794Z,99.90
2022-08-22T22:33:22.194Z,99.90
2022-08-22T22:36:13.258Z,99.90
2022-08-22T22:38:46.432Z,99.90
2022-08-22T22:41:27.795Z,99.90
2022-08-22T22:43:59.199Z,99.90
2022-08-22T22:47:01.335Z,99.90
2022-08-22T22:49:46.164Z,99.90
2022-08-22T22:52:18.656Z,99.90
2022-08-22T22:55:06.094Z,99.90
2022-08-22T22:58:11.456Z,99.90
2022-08-22T23:00:47.796Z,99.90
2022-08-22T23:03:17.755Z,99.90
2022-08-22T23:05:51.482Z,99.90
2022-08-22T23:08:27.396Z,99.90
2022-08-22T23:10:55.781Z,99.90
2022-08-22T23:13:48.052Z,99.90
2022-08-22T23:16:44.743Z,99.90
2022-08-22T23:19:16.580Z,99.90
2022-08-22T23:21:48.427Z,99.90
2022-08-22T23:24:27.966Z,99.90
2022-08-22T23:27:17.350Z,99.90
2022-08-22T23:29:48.708Z,99.90
2022-08-22T23:32:22.696Z,99.90
2022-08-22T23:34:53.054Z,99.90
2022-08-22T23:37:25.546Z,99.90
2022-08-22T23:39:58.101Z,99.90
2022-08-22T23:42:29.646Z,99.90
2022-08-22T23:44:59.408Z,99.90
2022-08-22T23:47:29.808Z,99.90
2022-08-22T23:49:58.489Z,99.90
2022-08-22T23:52:48.665Z,99.90
2022-08-22T23:58:07.897Z,99.90
